createdAt,value
2022-11-28T00:00:59.455Z,1.70
2022-11-28T00:03:01.435Z,1.70
2022-11-28T00:05:03.785Z,1.60
2022-11-28T00:07:05.906Z,1.60
2022-11-28T00:09:08.878Z,1.70
2022-11-28T00:11:13.053Z,1.60
2022-11-28T00:13:14.909Z,1.60
2022-11-28T00:15:16.794Z,1.70
2022-11-28T00:17:19.761Z,1.70
2022-11-28T00:19:21.625Z,1.70
2022-11-28T00:21:23.743Z,1.70
2022-11-28T00:23:25.840Z,1.70
2022-11-28T00:25:27.589Z,1.70
2022-11-28T00:27:29.474Z,1.70
2022-11-28T00:29:31.415Z,1.70
2022-11-28T00:31:36.444Z,1.70
2022-11-28T00:33:38.301Z,1.70
2022-11-28T00:35:40.186Z,1.70
2022-11-28T00:37:43.144Z,1.80
2022-11-28T00:39:44.952Z,1.80
2022-11-28T00:41:46.839Z,1.70
2022-11-28T00:43:50.475Z,1.70
2022-11-28T00:45:52.444Z,1.70
2022-11-28T00:47:54.238Z,1.70
2022-11-28T00:49:56.151Z,1.70
2022-11-28T00:51:57.975Z,1.80
2022-11-28T00:54:01.575Z,1.80
2022-11-28T00:56:07.580Z,1.80
2022-11-28T00:58:09.469Z,1.80
2022-11-28T01:00:11.794Z,1.80
2022-11-28T01:02:13.680Z,1.80
2022-11-28T01:04:17.561Z,1.70
2022-11-28T01:06:43.693Z,1.70
2022-11-28T01:08:45.508Z,1.70
2022-11-28T01:10:47.448Z,1.70
2022-11-28T01:12:49.304Z,1.70
2022-11-28T01:14:51.369Z,1.70
2022-11-28T01:16:53.186Z,1.70
2022-11-28T01:18:55.235Z,1.70
2022-11-28T01:20:57.752Z,1.70
2022-11-28T01:22:59.596Z,1.70
2022-11-28T01:25:01.449Z,1.70
2022-11-28T01:27:03.320Z,1.70
2022-11-28T01:29:05.233Z,1.70
2022-11-28T01:31:08.722Z,1.70
2022-11-28T01:33:10.554Z,1.70
2022-11-28T01:35:12.444Z,1.80
2022-11-28T01:37:14.315Z,1.70
2022-11-28T01:39:16.127Z,1.70
2022-11-28T01:41:21.547Z,1.70
2022-11-28T01:43:24.759Z,1.70
2022-11-28T01:45:30.310Z,1.70
2022-11-28T01:47:33.915Z,1.70
2022-11-28T01:49:37.521Z,1.70
2022-11-28T01:51:42.477Z,1.70
2022-11-28T01:53:47.465Z,1.70
2022-11-28T01:55:57.880Z,1.80
2022-11-28T01:58:00.165Z,1.80
2022-11-28T02:00:12.605Z,1.70
2022-11-28T02:02:20.885Z,1.80
2022-11-28T02:04:25.885Z,1.80
2022-11-28T02:06:30.294Z,1.70
2022-11-28T02:08:36.072Z,1.80
2022-11-28T02:11:11.411Z,1.80
2022-11-28T02:13:34.451Z,1.80
2022-11-28T02:16:13.557Z,1.80
2022-11-28T02:18:50.538Z,1.80
2022-11-28T02:21:11.076Z,1.80
2022-11-28T02:23:28.918Z,1.80
2022-11-28T02:26:08.426Z,1.80
2022-11-28T02:28:29.812Z,1.80
2022-11-28T02:30:40.229Z,1.70
2022-11-28T02:32:50.883Z,1.80
2022-11-28T02:35:11.677Z,1.70
2022-11-28T02:37:42.463Z,1.80
2022-11-28T02:40:03.258Z,1.80
2022-11-28T02:42:26.874Z,1.80
2022-11-28T02:44:54.652Z,1.80
2022-11-28T02:47:33.345Z,1.70
2022-11-28T02:50:05.163Z,1.80
2022-11-28T02:52:32.293Z,1.80
2022-11-28T02:54:35.036Z,1.70
2022-11-28T02:56:37.020Z,1.80
2022-11-28T02:58:39.203Z,1.80
2022-11-28T03:00:44.164Z,1.80
2022-11-28T03:02:50.112Z,1.80
2022-11-28T03:05:07.080Z,1.70
2022-11-28T03:07:51.011Z,1.80
2022-11-28T03:10:30.444Z,1.80
2022-11-28T03:12:51.749Z,1.80
2022-11-28T03:15:01.118Z,1.70
2022-11-28T03:17:17.850Z,1.70
2022-11-28T03:19:38.024Z,1.70
2022-11-28T03:21:52.928Z,1.80
2022-11-28T03:24:25.441Z,1.80
2022-11-28T03:26:39.688Z,1.80
2022-11-28T03:29:15.024Z,1.80
2022-11-28T03:31:29.659Z,1.80
2022-11-28T03:33:35.734Z,1.80
2022-11-28T03:35:45.090Z,1.80
2022-11-28T03:37:54.847Z,1.80
2022-11-28T03:40:04.201Z,1.80
2022-11-28T03:42:09.781Z,1.80
2022-11-28T03:44:18.141Z,1.80
2022-11-28T03:46:23.492Z,1.80
2022-11-28T03:48:32.183Z,1.90
2022-11-28T03:50:48.667Z,2.00
2022-11-28T03:52:56.803Z,1.90
2022-11-28T03:55:11.166Z,1.80
2022-11-28T03:57:54.506Z,1.90
2022-11-28T04:00:00.161Z,1.80
2022-11-28T04:02:01.938Z,1.80
2022-11-28T04:04:16.083Z,1.70
2022-11-28T04:06:26.861Z,1.70
2022-11-28T04:08:38.868Z,1.70
2022-11-28T04:10:51.711Z,1.70
2022-11-28T04:13:15.752Z,1.80
2022-11-28T04:15:26.410Z,1.80
2022-11-28T04:17:43.923Z,1.70
2022-11-28T04:19:49.242Z,1.80
2022-11-28T04:22:17.480Z,1.70
2022-11-28T04:24:27.208Z,2.00
2022-11-28T04:26:48.073Z,1.80
2022-11-28T04:28:52.172Z,1.80
2022-11-28T04:30:56.697Z,1.80
2022-11-28T04:33:02.925Z,1.80
2022-11-28T04:35:09.930Z,1.80
2022-11-28T04:37:14.996Z,1.80
2022-11-28T04:39:21.425Z,1.80
2022-11-28T04:41:45.463Z,1.70
2022-11-28T04:43:53.214Z,1.70
2022-11-28T04:45:59.828Z,1.70
2022-11-28T04:48:02.196Z,1.70
2022-11-28T04:50:04.386Z,1.80
2022-11-28T04:52:13.413Z,1.70
2022-11-28T04:54:24.770Z,1.70
2022-11-28T04:56:34.071Z,1.70
2022-11-28T04:58:41.055Z,1.70
2022-11-28T05:00:44.305Z,1.90
2022-11-28T05:02:49.726Z,1.80
2022-11-28T05:04:55.675Z,1.80
2022-11-28T05:07:08.575Z,1.80
2022-11-28T05:09:12.056Z,1.80
2022-11-28T05:11:13.919Z,1.80
2022-11-28T05:13:16.226Z,1.80
2022-11-28T05:15:19.239Z,1.70
2022-11-28T05:17:21.244Z,1.70
2022-11-28T05:19:23.167Z,1.70
2022-11-28T05:21:25.008Z,1.70
2022-11-28T05:23:26.886Z,1.80
2022-11-28T05:25:28.689Z,1.80
2022-11-28T05:27:30.523Z,1.80
2022-11-28T05:29:32.434Z,1.80
2022-11-28T05:31:34.339Z,1.80
2022-11-28T05:33:36.169Z,1.80
2022-11-28T05:35:40.048Z,1.90
2022-11-28T05:37:42.128Z,1.90
2022-11-28T05:39:44.280Z,2.00
2022-11-28T05:41:46.373Z,2.00
2022-11-28T05:43:48.209Z,1.90
2022-11-28T05:45:50.160Z,1.90
2022-11-28T05:47:52.063Z,1.90
2022-11-28T05:49:53.917Z,1.90
2022-11-28T05:51:55.845Z,2.00
2022-11-28T05:53:57.726Z,2.00
2022-11-28T05:55:59.943Z,2.00
2022-11-28T05:58:01.773Z,2.10
2022-11-28T06:00:04.629Z,2.30
2022-11-28T06:02:06.522Z,2.20
2022-11-28T06:04:08.560Z,2.10
2022-11-28T06:06:14.309Z,2.20
2022-11-28T06:08:16.652Z,2.10
2022-11-28T06:10:19.131Z,2.10
2022-11-28T06:12:20.989Z,2.20
2022-11-28T06:14:22.865Z,2.20
2022-11-28T06:16:27.489Z,2.30
2022-11-28T06:18:29.400Z,2.50
2022-11-28T06:20:31.275Z,2.40
2022-11-28T06:22:33.859Z,2.30
2022-11-28T06:24:35.755Z,2.30
2022-11-28T06:26:37.572Z,2.30
2022-11-28T06:28:40.602Z,2.20
2022-11-28T06:30:44.504Z,2.30
2022-11-28T06:32:46.367Z,2.30
2022-11-28T06:34:48.188Z,2.30
2022-11-28T06:36:50.148Z,2.40
2022-11-28T06:38:52.298Z,2.40
2022-11-28T08:16:51.606Z,2.90
2022-11-28T08:18:54.803Z,3.20
2022-11-28T08:21:07.910Z,3.20
2022-11-28T08:23:09.827Z,3.10
2022-11-28T08:25:11.711Z,3.10
2022-11-28T08:27:13.539Z,3.10
2022-11-28T08:29:15.451Z,3.10
2022-11-28T08:31:20.675Z,3.20
2022-11-28T08:33:24.678Z,3.40
2022-11-28T08:35:26.596Z,3.40
2022-11-28T08:37:28.975Z,3.40
2022-11-28T08:39:30.903Z,3.30
2022-11-28T08:41:32.759Z,3.30
2022-11-28T08:43:35.268Z,3.60
2022-11-28T08:45:37.995Z,3.50
2022-11-28T08:47:39.950Z,3.40
2022-11-28T08:49:42.195Z,3.40
2022-11-28T08:51:44.926Z,3.40
2022-11-28T08:53:49.368Z,3.50
2022-11-28T08:55:51.953Z,3.40
2022-11-28T08:57:53.797Z,3.40
2022-11-28T08:59:55.673Z,3.40
2022-11-28T09:01:57.504Z,3.50
2022-11-28T09:03:59.397Z,3.50
2022-11-28T09:06:05.180Z,3.60
2022-11-28T09:08:10.406Z,3.60
2022-11-28T09:10:13.726Z,3.60
2022-11-28T09:12:16.198Z,3.70
2022-11-28T09:14:18.069Z,3.50
2022-11-28T09:16:20.077Z,3.50
2022-11-28T09:18:22.120Z,3.50
2022-11-28T09:20:24.038Z,3.50
2022-11-28T09:22:25.887Z,3.50
2022-11-28T09:24:27.744Z,3.60
2022-11-28T09:26:30.144Z,3.60
2022-11-28T09:28:31.977Z,3.50
2022-11-28T09:30:34.713Z,3.60
2022-11-28T09:32:36.749Z,3.60
2022-11-28T09:34:38.683Z,3.70
2022-11-28T09:36:43.108Z,3.70
2022-11-28T09:38:44.980Z,3.50
2022-11-28T09:40:53.191Z,3.50
2022-11-28T09:42:55.591Z,3.40
2022-11-28T09:45:10.264Z,3.50
2022-11-28T09:47:20.148Z,3.40
2022-11-28T09:49:40.747Z,3.60
2022-11-28T09:51:43.158Z,3.70
2022-11-28T09:54:09.813Z,3.50
2022-11-28T09:56:19.858Z,3.50
2022-11-28T09:58:41.813Z,3.50
2022-11-28T10:01:15.302Z,3.50
2022-11-28T10:03:17.164Z,3.40
2022-11-28T10:05:41.141Z,3.40
2022-11-28T10:07:55.554Z,3.40
2022-11-28T10:10:14.671Z,3.50
2022-11-28T10:12:31.027Z,3.60
2022-11-28T10:14:57.147Z,3.50
2022-11-28T10:17:16.356Z,3.50
2022-11-28T10:19:53.955Z,3.50
2022-11-28T10:21:59.327Z,3.50
2022-11-28T10:24:07.647Z,3.70
2022-11-28T10:26:18.975Z,3.70
2022-11-28T10:28:31.583Z,3.70
2022-11-28T10:30:40.008Z,3.70
2022-11-28T10:32:45.126Z,3.70
2022-11-28T10:35:00.349Z,3.60
2022-11-28T10:37:07.049Z,3.60
2022-11-28T10:39:13.134Z,3.60
2022-11-28T10:41:19.030Z,3.50
2022-11-28T10:43:39.849Z,3.60
2022-11-28T10:46:16.706Z,3.60
2022-11-28T10:48:39.697Z,3.60
2022-11-28T10:51:07.099Z,3.70
2022-11-28T10:53:32.856Z,3.70
2022-11-28T10:55:45.891Z,3.70
2022-11-28T10:57:56.611Z,3.60
2022-11-28T11:00:13.128Z,3.60
2022-11-28T11:02:40.122Z,3.60
2022-11-28T11:04:42.312Z,3.50
2022-11-28T11:07:06.849Z,3.50
2022-11-28T11:09:12.298Z,3.40
2022-11-28T11:11:31.985Z,3.40
2022-11-28T11:13:55.172Z,3.40
2022-11-28T11:16:01.549Z,3.40
2022-11-28T11:18:05.548Z,3.40
2022-11-28T11:20:26.725Z,3.50
2022-11-28T11:22:31.965Z,3.60
2022-11-28T11:24:33.970Z,3.70
2022-11-28T11:26:40.387Z,3.70
2022-11-28T11:28:47.021Z,3.60
2022-11-28T11:30:49.104Z,3.60
2022-11-28T11:32:51.788Z,3.70
2022-11-28T11:34:55.547Z,3.70
2022-11-28T11:37:21.858Z,3.70
2022-11-28T11:39:25.701Z,3.60
2022-11-28T11:41:30.622Z,3.70
2022-11-28T11:43:36.171Z,3.60
2022-11-28T11:45:38.233Z,3.60
2022-11-28T11:47:43.722Z,3.70
2022-11-28T11:49:50.281Z,3.60
2022-11-28T11:51:57.682Z,3.50
2022-11-28T11:54:06.671Z,3.50
2022-11-28T11:56:09.950Z,3.60
2022-11-28T11:58:16.894Z,3.60
2022-11-28T12:00:22.085Z,3.60
2022-11-28T14:15:22.648Z,3.70
2022-11-28T14:18:31.563Z,3.80
2022-11-28T14:20:58.761Z,3.80
2022-11-28T14:23:22.562Z,3.80
2022-11-28T14:25:25.493Z,3.80
2022-11-28T14:27:32.449Z,3.90
2022-11-28T14:29:40.902Z,3.90
2022-11-28T14:32:06.599Z,3.90
2022-11-28T14:34:43.883Z,3.90
2022-11-28T14:36:46.143Z,3.90
2022-11-28T14:39:00.726Z,3.90
2022-11-28T14:41:06.651Z,3.90
2022-11-28T14:43:29.807Z,3.90
2022-11-28T14:45:44.265Z,3.90
2022-11-28T14:48:06.696Z,4.00
2022-11-28T14:50:09.169Z,4.00
2022-11-28T14:54:44.195Z,4.00
2022-11-28T14:56:46.898Z,4.10
2022-11-28T14:58:57.532Z,4.00
2022-11-28T15:01:02.282Z,4.00
2022-11-28T15:03:31.258Z,4.00
2022-11-28T15:05:48.923Z,4.00
2022-11-28T15:08:17.443Z,4.10
2022-11-28T15:10:28.148Z,4.00
2022-11-28T15:12:59.622Z,4.10
2022-11-28T15:15:02.199Z,4.10
2022-11-28T15:17:14.959Z,4.10
2022-11-28T15:19:32.993Z,4.00
2022-11-28T15:21:44.925Z,4.10
2022-11-28T15:23:47.774Z,4.10
2022-11-28T15:25:57.270Z,4.10
2022-11-28T15:28:14.673Z,4.10
2022-11-28T15:30:24.031Z,4.10
2022-11-28T15:32:32.073Z,4.10
2022-11-28T15:34:36.625Z,4.10
2022-11-28T15:36:39.429Z,4.20
2022-11-28T15:38:44.116Z,4.20
2022-11-28T15:40:52.608Z,4.20
2022-11-28T15:43:02.096Z,4.20
2022-11-28T15:45:17.794Z,4.20
2022-11-28T15:47:21.279Z,4.20
2022-11-28T15:49:31.175Z,4.20
2022-11-28T15:51:35.651Z,4.30
2022-11-28T15:53:43.888Z,4.20
2022-11-28T15:55:46.484Z,4.30
2022-11-28T15:57:48.421Z,4.20
2022-11-28T15:59:50.601Z,4.30
2022-11-28T18:13:54.936Z,3.80
2022-11-28T18:15:57.343Z,3.70
2022-11-28T18:17:59.488Z,3.70
2022-11-28T18:20:01.833Z,3.70
2022-11-28T18:22:04.067Z,3.70
2022-11-28T18:24:06.183Z,3.70
2022-11-28T18:26:08.859Z,3.70
2022-11-28T18:28:18.468Z,3.70
2022-11-28T18:30:20.962Z,3.70
2022-11-28T18:32:22.876Z,3.70
2022-11-28T18:34:24.739Z,3.70
2022-11-28T18:36:27.850Z,3.70
2022-11-28T18:38:30.969Z,3.60
2022-11-28T18:40:37.357Z,3.70
2022-11-28T18:42:39.332Z,3.70
2022-11-28T18:44:41.198Z,3.70
2022-11-28T18:46:45.043Z,3.70
2022-11-28T18:48:47.761Z,3.70
2022-11-28T18:50:49.619Z,3.60
2022-11-28T18:52:51.770Z,3.60
2022-11-28T18:54:53.617Z,3.60
2022-11-28T18:56:55.474Z,3.60
2022-11-28T18:58:57.873Z,3.60
2022-11-28T19:01:00.015Z,3.60
2022-11-28T19:03:01.918Z,3.60
2022-11-28T19:05:04.230Z,3.60
2022-11-28T19:07:06.098Z,3.60
2022-11-28T19:09:13.741Z,3.60
2022-11-28T19:11:18.138Z,3.60
2022-11-28T19:13:19.988Z,3.60
2022-11-28T19:15:21.992Z,3.50
2022-11-28T19:17:23.702Z,3.60
2022-11-28T19:19:25.621Z,3.60
2022-11-28T19:21:31.714Z,3.60
2022-11-28T19:23:34.003Z,3.50
2022-11-28T19:25:36.315Z,3.50
2022-11-28T19:27:47.749Z,3.50
2022-11-28T19:29:49.558Z,3.50
2022-11-28T19:31:51.477Z,3.50
2022-11-28T19:34:00.884Z,3.50
2022-11-28T19:36:08.630Z,3.60
2022-11-28T19:38:10.559Z,3.50
2022-11-28T19:40:14.509Z,3.50
2022-11-28T19:42:16.734Z,3.50
2022-11-28T19:44:20.928Z,3.40
2022-11-28T19:46:22.842Z,3.50
2022-11-28T19:48:24.831Z,3.40
2022-11-28T19:50:26.664Z,3.40
2022-11-28T19:52:28.855Z,3.40
2022-11-28T19:54:30.772Z,3.40
2022-11-28T19:56:32.685Z,3.20
2022-11-28T19:58:35.912Z,3.10
2022-11-28T20:00:38.971Z,3.10
2022-11-28T20:02:40.944Z,3.00
2022-11-28T20:04:43.568Z,2.90
2022-11-28T20:06:45.322Z,2.90
2022-11-28T20:08:48.965Z,3.00
2022-11-28T20:10:50.846Z,3.10
2022-11-28T20:12:54.618Z,3.00
2022-11-28T20:14:59.902Z,2.90
2022-11-28T20:17:02.073Z,2.90
2022-11-28T20:19:06.068Z,2.80
2022-11-28T20:21:10.540Z,2.80
2022-11-28T20:23:12.482Z,2.80
2022-11-28T20:25:17.882Z,2.80
2022-11-28T20:27:22.649Z,2.80
2022-11-28T20:29:28.027Z,3.10
2022-11-28T20:31:33.842Z,3.00
2022-11-28T20:33:35.849Z,2.90
2022-11-28T20:35:39.117Z,2.90
2022-11-28T20:37:41.234Z,2.80
2022-11-28T20:39:44.199Z,2.80
2022-11-28T20:41:46.378Z,2.80
2022-11-28T20:43:52.193Z,2.80
2022-11-28T20:45:54.378Z,2.80
2022-11-28T20:47:56.623Z,2.80
2022-11-28T20:49:58.426Z,2.80
2022-11-28T20:52:00.315Z,2.70
2022-11-28T20:54:04.875Z,2.70
2022-11-28T20:56:09.261Z,2.80
2022-11-28T20:58:16.187Z,2.70
2022-11-28T21:00:23.530Z,2.70
2022-11-28T21:02:28.242Z,2.80
2022-11-28T21:04:31.445Z,2.70
2022-11-28T21:06:36.252Z,2.80
2022-11-28T21:08:38.914Z,2.70
2022-11-28T21:10:40.800Z,2.70
2022-11-28T21:12:42.745Z,2.60
2022-11-28T21:14:44.661Z,2.70
2022-11-28T21:16:46.753Z,2.60
2022-11-28T21:18:49.271Z,2.60
2022-11-28T21:20:52.901Z,2.50
2022-11-28T21:22:55.661Z,2.70
2022-11-28T21:24:57.550Z,2.60
2022-11-28T21:26:59.397Z,2.60
2022-11-28T21:29:05.925Z,2.60
2022-11-28T21:31:13.706Z,2.60
2022-11-28T21:33:15.643Z,2.60
2022-11-28T21:35:17.431Z,2.60
2022-11-28T21:37:19.655Z,2.60
2022-11-28T21:39:22.094Z,2.60
2022-11-28T21:41:31.924Z,2.60
2022-11-28T21:43:34.163Z,2.70
2022-11-28T21:45:35.994Z,2.70
2022-11-28T21:47:37.984Z,2.70
2022-11-28T21:49:39.741Z,2.70
2022-11-28T21:51:41.735Z,2.80
2022-11-28T21:53:43.442Z,2.70
2022-11-28T21:55:45.631Z,2.70
2022-11-28T21:57:47.560Z,2.70
2022-11-28T21:59:49.379Z,2.80
2022-11-28T22:01:51.241Z,2.60
2022-11-28T22:03:54.401Z,2.70
2022-11-28T22:06:06.860Z,2.70
2022-11-28T22:08:08.769Z,2.70
2022-11-28T22:10:10.912Z,2.70
2022-11-28T22:12:12.868Z,2.80
2022-11-28T22:14:14.831Z,2.70
2022-11-28T22:16:29.167Z,2.70
2022-11-28T22:18:31.038Z,2.70
2022-11-28T22:20:32.985Z,2.80
2022-11-28T22:22:35.150Z,2.70
2022-11-28T22:24:37.057Z,2.80
2022-11-28T22:26:38.979Z,2.80
2022-11-28T22:28:41.595Z,2.80
2022-11-28T22:30:43.452Z,2.70
2022-11-28T22:32:46.480Z,2.60
2022-11-28T22:34:49.012Z,2.50
2022-11-28T22:36:50.861Z,2.50
2022-11-28T22:38:57.622Z,2.40
2022-11-28T22:40:59.457Z,2.50
2022-11-28T22:43:01.399Z,2.50
2022-11-28T22:45:04.482Z,2.50
2022-11-28T22:47:06.563Z,2.30
2022-11-28T22:49:09.336Z,2.30
2022-11-28T22:51:14.532Z,2.30
2022-11-28T22:53:18.905Z,2.30
2022-11-28T22:55:20.739Z,2.20
2022-11-28T22:57:22.664Z,2.30
2022-11-28T22:59:24.486Z,2.30
2022-11-28T23:01:28.590Z,2.20
2022-11-28T23:03:30.488Z,2.20
2022-11-28T23:05:32.343Z,2.30
2022-11-28T23:07:34.275Z,2.30
2022-11-28T23:09:36.067Z,2.30
2022-11-28T23:11:39.284Z,2.30
2022-11-28T23:13:41.550Z,2.30
2022-11-28T23:15:47.236Z,2.30
2022-11-28T23:17:51.588Z,2.20
2022-11-28T23:19:53.473Z,2.30
2022-11-28T23:21:55.363Z,2.30
2022-11-28T23:23:57.353Z,2.20
2022-11-28T23:26:05.202Z,2.20
2022-11-28T23:28:07.390Z,2.20
2022-11-28T23:30:09.584Z,2.20
2022-11-28T23:32:11.495Z,2.20
2022-11-28T23:34:13.748Z,2.20
2022-11-28T23:36:21.098Z,2.20
2022-11-28T23:38:23.300Z,2.20
2022-11-28T23:40:25.145Z,2.30
2022-11-28T23:42:27.024Z,2.40
2022-11-28T23:44:29.101Z,2.30
2022-11-28T23:46:30.867Z,2.20
2022-11-28T23:48:32.812Z,2.20
2022-11-28T23:50:34.854Z,2.10
2022-11-28T23:52:36.575Z,2.10
2022-11-28T23:54:38.417Z,2.10
2022-11-28T23:56:41.706Z,2.00
2022-11-28T23:58:44.002Z,2.00
